Time;durP1;ratioP1;P1;durP2;ratioP2;P2;SDS_P1;SDS_P2;PMS_P1;PMS_P2;Temp;Humidity;BMP_temperature;BMP_pressure;BME280_temperature;BME280_humidity;BME280_pressure;Samples;Min_cycle;Max_cycle;Signal;HPM_P1;HPM_P2
2024/01/11 00:00:20;;;;;;;26.77;10.53;;;-4.10;99.90;;;;;;5021433;28;20045;-69
2024/01/11 00:02:45;;;;;;;30.45;12.25;;;-4.10;99.90;;;;;;5001085;28;20041;-69
2024/01/11 00:05:11;;;;;;;32.07;12.03;;;-4.10;99.90;;;;;;5022777;28;20051;-69
2024/01/11 00:07:37;;;;;;;26.10;10.93;;;-4.10;99.90;;;;;;5024359;28;20071;-69
2024/01/11 00:10:03;;;;;;;28.47;11.23;;;-4.20;99.90;;;;;;5023397;28;20034;-70
2024/01/11 00:12:29;;;;;;;28.25;10.63;;;-4.20;99.90;;;;;;5020289;28;20099;-69
2024/01/11 00:14:55;;;;;;;27.55;11.57;;;-4.20;99.90;;;;;;5001191;28;20367;-69
2024/01/11 00:17:20;;;;;;;30.13;12.00;;;-4.20;99.90;;;;;;5020816;28;20048;-69
2024/01/11 00:19:46;;;;;;;27.77;11.93;;;-4.20;99.90;;;;;;5021240;28;20048;-69
2024/01/11 00:22:12;;;;;;;25.97;10.63;;;-4.20;99.90;;;;;;5015942;28;20325;-69
2024/01/11 00:24:37;;;;;;;26.73;12.00;;;-4.20;99.90;;;;;;5021863;28;20037;-70
2024/01/11 00:27:03;;;;;;;26.97;10.77;;;-4.20;99.90;;;;;;5022165;28;20073;-69
2024/01/11 00:29:29;;;;;;;33.77;12.13;;;-4.20;99.90;;;;;;5023910;28;20041;-69
2024/01/11 00:31:55;;;;;;;24.03;11.20;;;-4.20;99.90;;;;;;5020624;28;20054;-69
2024/01/11 00:34:21;;;;;;;28.63;11.57;;;-4.20;99.90;;;;;;5020189;28;20073;-69
2024/01/11 00:36:47;;;;;;;29.55;12.68;;;-4.30;99.90;;;;;;5015580;28;20041;-69
2024/01/11 00:39:13;;;;;;;33.63;13.05;;;-4.20;99.90;;;;;;5022961;28;20088;-69
2024/01/11 00:41:39;;;;;;;31.83;12.33;;;-4.30;99.90;;;;;;5002835;28;20053;-70
2024/01/11 00:44:04;;;;;;;32.00;12.07;;;-4.20;99.90;;;;;;5020193;28;20185;-69
2024/01/11 00:46:30;;;;;;;25.40;11.93;;;-4.20;99.90;;;;;;5021953;28;20518;-69
2024/01/11 00:48:55;;;;;;;28.00;11.70;;;-4.20;99.90;;;;;;5021788;28;20052;-69
2024/01/11 00:51:21;;;;;;;30.37;12.30;;;-4.20;99.90;;;;;;5018671;28;20042;-69
2024/01/11 00:53:47;;;;;;;26.87;11.17;;;-4.20;99.90;;;;;;5018383;28;20037;-67
2024/01/11 00:56:19;;;;;;;31.20;12.63;;;-4.20;99.90;;;;;;5020409;28;20073;-67
2024/01/11 00:58:47;;;;;;;28.90;11.55;;;-4.20;99.90;;;;;;5020409;28;20095;-67
2024/01/11 01:01:13;;;;;;;28.00;13.00;;;-4.20;99.90;;;;;;5020134;28;20064;-67
2024/01/11 01:03:39;;;;;;;27.63;12.40;;;-4.20;99.90;;;;;;5020272;28;20045;-67
2024/01/11 01:06:05;;;;;;;26.77;11.75;;;-4.30;99.90;;;;;;5020702;28;20076;-67
2024/01/11 01:08:31;;;;;;;27.05;12.20;;;-4.30;99.90;;;;;;5003468;28;20049;-67
2024/01/11 01:10:57;;;;;;;29.40;12.27;;;-4.30;99.90;;;;;;5020191;28;20049;-67
2024/01/11 01:13:23;;;;;;;29.20;11.70;;;-4.30;99.90;;;;;;5019010;28;20057;-67
2024/01/11 01:15:48;;;;;;;33.90;11.47;;;-4.30;99.90;;;;;;5021035;28;20048;-67
2024/01/11 01:18:14;;;;;;;29.90;12.67;;;-4.30;99.90;;;;;;5016376;28;20153;-67
2024/01/11 01:20:40;;;;;;;35.07;12.80;;;-4.30;99.90;;;;;;5024168;28;20038;-69
2024/01/11 01:23:06;;;;;;;30.53;12.87;;;-4.40;99.90;;;;;;5023841;28;20286;-69
2024/01/11 01:25:49;;;;;;;28.33;12.10;;;-4.40;99.90;;;;;;5019693;28;20033;-69
2024/01/11 01:28:18;;;;;;;30.70;12.93;;;-4.40;99.90;;;;;;5025734;28;20095;-69
2024/01/11 01:30:44;;;;;;;34.80;12.80;;;-4.40;99.90;;;;;;5021690;28;20042;-69
2024/01/11 01:33:09;;;;;;;31.07;13.43;;;-4.40;99.90;;;;;;5022007;28;20046;-69
2024/01/11 01:35:35;;;;;;;34.20;14.20;;;-4.40;99.90;;;;;;5023983;28;20063;-69
2024/01/11 01:38:03;;;;;;;31.98;13.30;;;-4.40;99.90;;;;;;5022787;28;20033;-69
2024/01/11 01:40:34;;;;;;;32.17;13.23;;;-4.40;99.90;;;;;;5025233;28;20422;-69
2024/01/11 01:42:59;;;;;;;35.50;13.27;;;-4.40;99.90;;;;;;5024841;28;20053;-69
2024/01/11 01:45:25;;;;;;;29.92;12.00;;;-4.40;99.90;;;;;;5024098;28;20056;-69
2024/01/11 01:47:51;;;;;;;33.63;13.63;;;-4.40;99.90;;;;;;5020037;28;20422;-70
2024/01/11 01:50:18;;;;;;;26.70;12.30;;;-4.40;99.90;;;;;;5024510;28;20383;-69
2024/01/11 01:52:44;;;;;;;29.83;12.05;;;-4.40;99.90;;;;;;5021215;28;20094;-69
2024/01/11 01:55:12;;;;;;;34.78;14.10;;;-4.40;99.90;;;;;;5006838;28;20124;-69
2024/01/11 01:57:40;;;;;;;33.42;13.32;;;-4.40;99.90;;;;;;5021193;28;20109;-70
2024/01/11 02:00:13;;;;;;;30.17;13.60;;;-4.40;99.90;;;;;;5023780;28;20049;-70
2024/01/11 02:02:48;;;;;;;33.33;14.60;;;-4.40;99.90;;;;;;5018203;28;20053;-70
2024/01/11 02:05:15;;;;;;;36.13;13.55;;;-4.40;99.90;;;;;;5027338;28;20060;-70
2024/01/11 02:07:41;;;;;;;30.70;13.27;;;-4.40;99.90;;;;;;5023908;28;20356;-70
2024/01/11 02:10:07;;;;;;;32.40;12.88;;;-4.40;99.90;;;;;;5024209;28;20042;-70
2024/01/11 02:12:35;;;;;;;35.30;14.02;;;-4.40;99.90;;;;;;5025905;28;20419;-69
2024/01/11 02:15:03;;;;;;;30.73;13.38;;;-4.40;99.90;;;;;;5000481;28;20041;-70
2024/01/11 02:17:32;;;;;;;32.90;13.85;;;-4.40;99.90;;;;;;5019256;28;20088;-70
2024/01/11 02:19:57;;;;;;;34.42;13.90;;;-4.40;99.90;;;;;;5023196;28;20278;-70
2024/01/11 02:22:35;;;;;;;37.77;15.67;;;-4.40;99.90;;;;;;5022378;28;20526;-70
2024/01/11 02:25:02;;;;;;;32.70;14.05;;;-4.40;99.90;;;;;;5021995;28;20057;-70
2024/01/11 02:27:28;;;;;;;36.75;13.50;;;-4.40;99.90;;;;;;5012771;28;20041;-69
2024/01/11 02:29:53;;;;;;;36.17;14.38;;;-4.40;99.90;;;;;;5016353;28;20112;-70
2024/01/11 02:32:19;;;;;;;37.07;13.90;;;-4.40;99.90;;;;;;5019367;28;20068;-70
2024/01/11 02:34:46;;;;;;;34.33;14.48;;;-4.40;99.90;;;;;;5022719;28;20627;-70
2024/01/11 02:37:14;;;;;;;39.92;13.88;;;-4.40;99.90;;;;;;5006656;28;20307;-70
2024/01/11 02:39:43;;;;;;;36.92;15.25;;;-4.40;99.90;;;;;;5023302;28;20037;-70
2024/01/11 02:42:11;;;;;;;34.67;13.05;;;-4.40;99.90;;;;;;5021810;28;20065;-70
2024/01/11 02:44:37;;;;;;;33.13;13.23;;;-4.50;99.90;;;;;;5024506;28;20048;-69
2024/01/11 02:47:03;;;;;;;32.07;13.37;;;-4.50;99.90;;;;;;5020708;28;20436;-70
2024/01/11 02:49:28;;;;;;;36.73;15.47;;;-4.50;99.90;;;;;;5023286;28;20044;-69
2024/01/11 02:51:57;;;;;;;37.55;14.27;;;-4.50;99.90;;;;;;5018403;28;20525;-70
2024/01/11 02:54:22;;;;;;;34.70;14.10;;;-4.50;99.90;;;;;;5018381;28;20082;-69
2024/01/11 02:56:48;;;;;;;32.17;13.53;;;-4.50;99.90;;;;;;5022755;28;20107;-69
2024/01/11 02:59:14;;;;;;;34.97;14.07;;;-4.50;99.90;;;;;;5019972;28;20071;-69
2024/01/11 03:01:40;;;;;;;35.53;14.30;;;-4.50;99.90;;;;;;5022606;28;20037;-69
2024/01/11 03:04:05;;;;;;;34.60;13.15;;;-4.50;99.90;;;;;;5021424;28;20962;-69
2024/01/11 03:06:31;;;;;;;31.00;13.83;;;-4.50;99.90;;;;;;5028535;28;20587;-72
2024/01/11 03:08:57;;;;;;;35.80;15.03;;;-4.50;99.90;;;;;;5026310;28;20118;-67
2024/01/11 03:11:22;;;;;;;31.03;13.20;;;-4.50;99.90;;;;;;5015710;28;20117;-67
2024/01/11 03:13:48;;;;;;;34.77;13.60;;;-4.50;99.90;;;;;;5020472;28;20546;-67
2024/01/11 03:16:13;;;;;;;33.17;13.73;;;-4.50;99.90;;;;;;5023049;28;20041;-67
2024/01/11 03:18:39;;;;;;;34.17;13.20;;;-4.50;99.90;;;;;;5019779;28;20137;-67
2024/01/11 03:21:05;;;;;;;39.05;14.77;;;-4.60;99.90;;;;;;5019752;28;20461;-67
2024/01/11 03:23:30;;;;;;;38.00;14.13;;;-4.50;99.90;;;;;;5021058;28;20033;-67
2024/01/11 03:25:59;;;;;;;36.28;14.10;;;-4.60;99.90;;;;;;5013766;28;20068;-67
2024/01/11 03:28:24;;;;;;;39.20;13.93;;;-4.60;99.90;;;;;;5024516;28;20084;-67
2024/01/11 03:30:53;;;;;;;36.03;14.80;;;-4.60;99.90;;;;;;5022168;28;20090;-67
2024/01/11 03:33:21;;;;;;;37.40;14.73;;;-4.60;99.90;;;;;;5023822;28;20132;-67
2024/01/11 03:35:47;;;;;;;28.97;13.13;;;-4.60;99.90;;;;;;5021798;28;20168;-67
2024/01/11 03:38:15;;;;;;;37.47;13.80;;;-4.60;99.90;;;;;;5022918;28;20565;-67
2024/01/11 03:40:40;;;;;;;29.50;12.88;;;-4.50;99.90;;;;;;5020363;28;20153;-67
2024/01/11 03:43:06;;;;;;;29.67;12.57;;;-4.60;99.90;;;;;;5022932;28;20260;-67
2024/01/11 03:45:32;;;;;;;35.43;14.07;;;-4.50;99.90;;;;;;5021452;28;20046;-67
2024/01/11 03:47:57;;;;;;;32.63;14.67;;;-4.60;99.90;;;;;;5023961;28;20045;-67
2024/01/11 03:50:25;;;;;;;40.55;15.35;;;-4.50;99.90;;;;;;5003857;28;20561;-67
2024/01/11 03:52:51;;;;;;;36.47;14.43;;;-4.50;99.90;;;;;;5019713;28;20117;-67
2024/01/11 03:55:20;;;;;;;36.37;13.73;;;-4.60;99.90;;;;;;5021300;28;20064;-67
2024/01/11 03:57:46;;;;;;;34.72;13.60;;;-4.50;99.90;;;;;;5006404;28;20033;-67
2024/01/11 04:00:12;;;;;;;37.60;14.20;;;-4.50;99.90;;;;;;5015917;28;20056;-67
2024/01/11 04:02:38;;;;;;;39.13;15.40;;;-4.50;99.90;;;;;;5020436;28;20050;-67
2024/01/11 04:05:04;;;;;;;37.27;14.23;;;-4.50;99.90;;;;;;5022402;28;20086;-67
2024/01/11 04:07:35;;;;;;;36.30;13.68;;;-4.50;99.90;;;;;;5022109;28;20381;-67
2024/01/11 04:10:01;;;;;;;35.45;15.07;;;-4.50;99.90;;;;;;5018314;28;20524;-68
2024/01/11 04:12:26;;;;;;;36.70;13.93;;;-4.60;99.90;;;;;;5023304;28;20092;-68
2024/01/11 04:14:52;;;;;;;33.77;15.00;;;-4.50;99.90;;;;;;5019503;28;20402;-68
2024/01/11 04:17:17;;;;;;;35.03;14.17;;;-4.50;99.90;;;;;;5018552;28;20128;-68
2024/01/11 04:19:43;;;;;;;33.70;14.73;;;-4.60;99.90;;;;;;5018912;28;20395;-68
2024/01/11 04:22:09;;;;;;;33.47;12.70;;;-4.50;99.90;;;;;;5022244;28;20375;-68
2024/01/11 04:24:34;;;;;;;37.70;14.68;;;-4.60;99.90;;;;;;5020572;28;20056;-68
2024/01/11 04:27:00;;;;;;;33.93;14.27;;;-4.60;99.90;;;;;;5015026;28;20041;-69
2024/01/11 04:29:26;;;;;;;42.50;14.93;;;-4.60;99.90;;;;;;5018353;28;20509;-68
2024/01/11 04:31:51;;;;;;;38.97;14.10;;;-4.50;99.90;;;;;;5019116;28;20103;-68
2024/01/11 04:34:17;;;;;;;39.70;14.17;;;-4.60;99.90;;;;;;5021005;28;20377;-68
2024/01/11 04:36:42;;;;;;;51.53;17.07;;;-4.50;99.90;;;;;;5019165;28;20048;-68
2024/01/11 04:39:11;;;;;;;41.67;15.10;;;-4.50;99.90;;;;;;5020415;28;20045;-68
2024/01/11 04:41:37;;;;;;;43.30;15.40;;;-4.50;99.90;;;;;;5020864;28;20122;-68
2024/01/11 04:44:03;;;;;;;45.17;16.17;;;-4.60;99.90;;;;;;5021474;28;20114;-68
2024/01/11 04:46:28;;;;;;;37.70;15.48;;;-4.50;99.90;;;;;;5019997;28;20041;-68
2024/01/11 04:48:54;;;;;;;35.90;14.33;;;-4.50;99.90;;;;;;5020378;28;20414;-68
2024/01/11 04:51:19;;;;;;;39.37;14.93;;;-4.50;99.90;;;;;;5020570;28;20056;-68
2024/01/11 04:53:46;;;;;;;46.30;16.30;;;-4.50;99.90;;;;;;5018775;28;20232;-68
2024/01/11 04:56:14;;;;;;;41.72;15.48;;;-4.40;99.90;;;;;;5017718;28;20124;-68
2024/01/11 04:58:41;;;;;;;44.63;16.98;;;-4.40;99.90;;;;;;5021696;28;20115;-68
2024/01/11 05:01:07;;;;;;;40.75;16.13;;;-4.30;99.90;;;;;;5018170;28;20042;-68
2024/01/11 05:03:33;;;;;;;40.05;17.05;;;-4.20;99.90;;;;;;5031622;28;20038;-68
2024/01/11 05:05:59;;;;;;;50.90;18.60;;;-4.20;99.90;;;;;;5019971;28;20056;-68
2024/01/11 05:08:28;;;;;;;45.58;17.17;;;-4.10;99.90;;;;;;5021530;28;20306;-68
2024/01/11 05:10:54;;;;;;;40.20;15.18;;;-4.10;99.90;;;;;;5016482;28;20135;-68
2024/01/11 05:13:20;;;;;;;41.90;15.47;;;-4.00;99.90;;;;;;5019083;28;20135;-68
2024/01/11 05:15:45;;;;;;;40.97;15.27;;;-3.90;99.90;;;;;;5019415;28;20041;-68
2024/01/11 05:18:11;;;;;;;34.87;14.90;;;-3.90;99.90;;;;;;5017492;28;20042;-68
2024/01/11 05:20:37;;;;;;;36.60;14.63;;;-3.80;99.90;;;;;;5020254;28;20053;-69
2024/01/11 05:23:03;;;;;;;47.90;16.08;;;-3.70;99.90;;;;;;5015668;28;20394;-68
2024/01/11 05:25:36;;;;;;;37.60;15.25;;;-3.70;99.90;;;;;;5014057;28;20054;-68
2024/01/11 05:28:07;;;;;;;43.20;16.35;;;-3.60;99.90;;;;;;5016163;28;20469;-68
2024/01/11 05:30:36;;;;;;;36.88;15.00;;;-3.50;99.90;;;;;;5016152;28;20139;-68
2024/01/11 05:33:04;;;;;;;42.33;16.08;;;-3.50;99.90;;;;;;5021511;28;20500;-68
2024/01/11 05:35:29;;;;;;;33.17;13.93;;;-3.50;99.90;;;;;;5020581;28;20041;-68
2024/01/11 05:37:55;;;;;;;38.27;14.70;;;-3.40;99.90;;;;;;5020532;28;20046;-68
2024/01/11 05:40:21;;;;;;;41.83;15.50;;;-3.40;99.90;;;;;;5022492;28;20029;-68
2024/01/11 05:42:47;;;;;;;41.10;15.77;;;-3.30;99.90;;;;;;5016421;28;20510;-68
2024/01/11 05:45:12;;;;;;;38.83;16.57;;;-3.20;99.90;;;;;;5004021;28;20056;-68
2024/01/11 05:47:38;;;;;;;38.10;15.63;;;-3.20;99.90;;;;;;5020236;28;20049;-68
2024/01/11 05:50:09;;;;;;;37.95;13.82;;;-3.10;99.90;;;;;;5020842;28;20029;-68
2024/01/11 05:52:38;;;;;;;35.25;15.57;;;-3.10;99.90;;;;;;5018280;28;20045;-70
2024/01/11 05:55:05;;;;;;;39.17;15.02;;;-3.00;99.90;;;;;;5018829;28;20129;-69
2024/01/11 05:57:30;;;;;;;38.83;15.68;;;-3.00;99.90;;;;;;5020409;28;20120;-69
2024/01/11 05:59:56;;;;;;;37.80;15.20;;;-2.90;99.90;;;;;;5012848;28;20133;-69
2024/01/11 06:02:22;;;;;;;44.57;16.50;;;-2.90;99.90;;;;;;5016523;28;20073;-69
2024/01/11 06:04:51;;;;;;;42.88;18.15;;;-2.80;99.90;;;;;;5019931;28;20460;-69
2024/01/11 06:07:16;;;;;;;40.08;16.33;;;-2.80;99.90;;;;;;5024935;28;20439;-69
2024/01/11 06:09:45;;;;;;;39.17;16.30;;;-2.70;99.90;;;;;;5023305;28;20504;-69
2024/01/11 06:12:11;;;;;;;42.92;17.23;;;-2.70;99.90;;;;;;5023449;28;20039;-69
2024/01/11 06:14:36;;;;;;;41.37;17.07;;;-2.60;99.90;;;;;;5025020;28;20553;-69
2024/01/11 06:17:02;;;;;;;40.37;16.57;;;-2.60;99.90;;;;;;5006442;28;20124;-70
2024/01/11 06:19:28;;;;;;;41.73;15.80;;;-2.50;99.90;;;;;;5020928;28;20045;-69
2024/01/11 06:21:53;;;;;;;39.07;15.20;;;-2.50;99.90;;;;;;5037433;28;20045;-69
2024/01/11 06:24:19;;;;;;;41.90;15.67;;;-2.50;99.90;;;;;;5018645;28;20290;-69
2024/01/11 06:26:48;;;;;;;40.13;15.20;;;-2.50;99.90;;;;;;5021733;28;20577;-69
2024/01/11 06:29:13;;;;;;;38.95;14.93;;;-2.40;99.90;;;;;;5008455;28;20041;-69
2024/01/11 06:31:42;;;;;;;38.08;15.18;;;-2.40;99.90;;;;;;5020559;28;20045;-70
2024/01/11 06:34:08;;;;;;;36.30;15.23;;;-2.40;99.90;;;;;;5018573;28;20227;-70
2024/01/11 06:36:33;;;;;;;37.10;15.47;;;-2.30;99.90;;;;;;5023702;28;20041;-70
2024/01/11 06:38:59;;;;;;;34.63;14.17;;;-2.30;99.90;;;;;;5021590;28;20052;-70
2024/01/11 06:41:24;;;;;;;40.63;17.40;;;-2.30;99.90;;;;;;5023234;28;20643;-69
2024/01/11 06:43:50;;;;;;;38.50;15.87;;;-2.30;99.90;;;;;;5022073;28;20037;-69
2024/01/11 06:46:23;;;;;;;44.50;14.87;;;-2.20;99.90;;;;;;5024972;28;20034;-71
2024/01/11 06:48:49;;;;;;;35.95;14.02;;;-2.20;99.90;;;;;;5021133;28;20041;-74
2024/01/11 06:51:18;;;;;;;36.97;13.97;;;-2.20;99.90;;;;;;5021674;28;20042;-69
2024/01/11 06:53:44;;;;;;;36.75;14.38;;;-2.20;99.90;;;;;;5020281;28;20030;-69
2024/01/11 06:56:18;;;;;;;34.25;15.18;;;-2.10;99.90;;;;;;5020930;28;20073;-69
2024/01/11 06:58:44;;;;;;;33.90;15.60;;;-2.10;99.90;;;;;;5032183;28;20087;-69
2024/01/11 07:01:10;;;;;;;38.90;15.30;;;-2.10;99.90;;;;;;5018157;28;20478;-69
2024/01/11 07:03:36;;;;;;;35.58;16.17;;;-2.10;99.90;;;;;;5021063;28;20072;-69
2024/01/11 07:06:02;;;;;;;39.10;15.63;;;-2.10;99.90;;;;;;5019764;28;20561;-69
2024/01/11 07:08:30;;;;;;;;;;;-2.10;99.90;;;;;;5003518;28;20053;-69
2024/01/11 07:10:56;;;;;;;37.83;14.38;;;-2.00;99.90;;;;;;5018977;28;20409;-69
2024/01/11 07:13:23;;;;;;;40.78;16.48;;;-2.00;99.90;;;;;;5023046;28;20067;-69
2024/01/11 07:15:48;;;;;;;40.42;16.98;;;-2.00;99.90;;;;;;5022729;28;20128;-71
2024/01/11 07:18:14;;;;;;;36.53;15.13;;;-2.00;99.90;;;;;;5020116;28;20127;-73
2024/01/11 07:20:40;;;;;;;34.08;14.73;;;-1.90;99.90;;;;;;5025064;28;20049;-68
2024/01/11 07:23:06;;;;;;;38.42;16.75;;;-1.90;99.90;;;;;;5021295;28;20045;-69
2024/01/11 07:25:34;;;;;;;37.10;17.57;;;-1.90;99.90;;;;;;5024577;28;20044;-69
2024/01/11 07:28:01;;;;;;;35.10;15.50;;;-1.90;99.90;;;;;;5023803;28;20033;-69
2024/01/11 07:30:26;;;;;;;42.08;16.58;;;-1.90;99.90;;;;;;5006597;28;20045;-69
2024/01/11 07:32:52;;;;;;;37.23;15.77;;;-1.80;99.90;;;;;;5022520;28;20697;-69
2024/01/11 07:35:20;;;;;;;;;;;-1.80;99.90;;;;;;5019441;28;20479;-69
2024/01/11 07:37:45;;;;;;;39.47;16.02;;;-1.70;99.90;;;;;;5006232;28;19975;-69
2024/01/11 07:40:11;;;;;;;48.63;18.70;;;-1.70;99.90;;;;;;5023807;28;20049;-69
2024/01/11 07:42:40;;;;;;;41.10;17.47;;;-1.70;99.90;;;;;;5023385;28;20060;-69
2024/01/11 07:45:07;;;;;;;42.13;17.92;;;-1.70;99.90;;;;;;5021402;28;20103;-69
2024/01/11 07:47:33;;;;;;;44.53;19.25;;;-1.70;99.90;;;;;;5020643;28;20248;-69
2024/01/11 07:49:59;;;;;;;43.80;17.80;;;-1.60;99.90;;;;;;5023304;28;20054;-69
2024/01/11 07:52:24;;;;;;;40.92;17.90;;;-1.60;99.90;;;;;;5021018;28;20033;-69
2024/01/11 07:54:50;;;;;;;42.03;19.70;;;-1.60;99.90;;;;;;5022504;28;20041;-69
2024/01/11 07:57:16;;;;;;;36.70;16.23;;;-1.50;99.90;;;;;;5023752;28;20406;-69
2024/01/11 07:59:41;;;;;;;39.50;16.53;;;-1.50;99.90;;;;;;5022804;28;20036;-69
2024/01/11 08:02:07;;;;;;;34.87;15.17;;;-1.50;99.90;;;;;;5019889;28;20634;-69
2024/01/11 08:04:33;;;;;;;36.17;16.97;;;-1.50;99.90;;;;;;5020975;28;20490;-69
2024/01/11 08:07:01;;;;;;;41.05;16.60;;;-1.40;99.90;;;;;;5023803;28;20041;-69
2024/01/11 08:09:28;;;;;;;35.92;15.43;;;-1.40;99.90;;;;;;5021251;28;20456;-69
2024/01/11 08:11:54;;;;;;;38.25;16.27;;;-1.50;99.90;;;;;;5020339;28;20494;-69
2024/01/11 08:14:24;;;;;;;35.70;17.63;;;-1.40;99.90;;;;;;5016159;28;20045;-69
2024/01/11 08:16:50;;;;;;;37.60;15.68;;;-1.40;99.90;;;;;;5021647;28;20289;-69
2024/01/11 08:19:16;;;;;;;35.33;15.03;;;-1.40;99.90;;;;;;5014740;28;20038;-69
2024/01/11 08:21:42;;;;;;;;;;;-1.40;99.90;;;;;;5021307;28;20056;-69
2024/01/11 08:24:08;;;;;;;37.97;15.07;;;-1.40;99.90;;;;;;5019539;28;19917;-69
2024/01/11 08:26:33;;;;;;;39.00;15.50;;;-1.40;99.90;;;;;;5020746;28;20049;-69
2024/01/11 08:28:59;;;;;;;40.53;16.55;;;-1.30;99.90;;;;;;5000990;28;20060;-69
2024/01/11 08:31:25;;;;;;;37.73;15.63;;;-1.30;99.90;;;;;;5015247;28;20041;-69
2024/01/11 08:33:50;;;;;;;37.93;15.20;;;-1.30;99.90;;;;;;5018763;28;20041;-69
2024/01/11 08:36:16;;;;;;;39.97;16.43;;;-1.30;99.90;;;;;;5002128;28;20497;-69
2024/01/11 08:38:42;;;;;;;39.53;17.17;;;-1.20;99.90;;;;;;5023666;28;20055;-69
2024/01/11 08:41:08;;;;;;;39.23;16.27;;;-1.20;99.90;;;;;;5024626;28;20068;-69
2024/01/11 08:43:34;;;;;;;38.13;16.47;;;-1.10;99.90;;;;;;5022441;28;20518;-69
2024/01/11 08:45:59;;;;;;;38.90;17.80;;;-1.10;99.90;;;;;;5013700;28;20167;-69
2024/01/11 08:48:28;;;;;;;37.23;16.23;;;-1.00;99.90;;;;;;5022423;28;20304;-70
2024/01/11 08:50:53;;;;;;;41.00;16.35;;;-1.00;99.90;;;;;;5022099;28;20045;-70
2024/01/11 08:53:19;;;;;;;43.47;16.43;;;-1.00;99.90;;;;;;5021502;28;20461;-69
2024/01/11 08:55:45;;;;;;;45.03;16.83;;;-0.90;99.90;;;;;;5019776;28;20331;-70
2024/01/11 08:58:11;;;;;;;41.13;18.27;;;-0.90;99.90;;;;;;5024548;28;20092;-70
2024/01/11 09:00:37;;;;;;;40.50;17.27;;;-0.90;99.90;;;;;;5004882;28;20064;-70
2024/01/11 09:03:03;;;;;;;37.25;16.02;;;-0.90;99.90;;;;;;5018635;28;20052;-70
2024/01/11 09:05:29;;;;;;;40.03;15.85;;;-0.80;99.90;;;;;;5026028;28;20037;-69
2024/01/11 09:07:55;;;;;;;43.73;16.77;;;-0.80;99.90;;;;;;5020151;28;20576;-70
2024/01/11 09:10:21;;;;;;;40.30;15.00;;;-0.80;99.90;;;;;;5019796;28;20064;-69
2024/01/11 09:12:46;;;;;;;39.63;16.27;;;-0.70;99.90;;;;;;5021786;28;20037;-70
2024/01/11 09:15:12;;;;;;;36.43;15.90;;;-0.70;99.90;;;;;;5023462;28;20739;-69
2024/01/11 09:17:38;;;;;;;40.93;16.50;;;-0.60;99.90;;;;;;5023391;28;20166;-69
2024/01/11 09:20:05;;;;;;;36.72;15.30;;;-0.60;99.90;;;;;;5025893;28;20446;-69
2024/01/11 09:22:30;;;;;;;32.65;14.45;;;-0.60;99.90;;;;;;5027491;28;20541;-69
2024/01/11 09:24:56;;;;;;;36.83;15.40;;;-0.50;99.90;;;;;;5022096;28;20124;-69
2024/01/11 09:27:22;;;;;;;36.33;15.03;;;-0.50;99.90;;;;;;5023165;28;20069;-69
2024/01/11 09:29:48;;;;;;;39.60;17.25;;;-0.50;99.90;;;;;;5023580;28;20063;-69
2024/01/11 09:32:14;;;;;;;41.97;16.60;;;-0.40;99.90;;;;;;5019770;28;20041;-69
2024/01/11 09:34:39;;;;;;;33.75;14.82;;;-0.40;99.90;;;;;;5018130;28;20049;-69
2024/01/11 09:37:05;;;;;;;36.47;15.97;;;-0.40;99.90;;;;;;5020622;28;20120;-70
2024/01/11 09:39:31;;;;;;;30.43;14.53;;;-0.30;99.90;;;;;;5018897;28;20030;-69
2024/01/11 09:42:09;;;;;;;34.50;15.70;;;-0.20;99.90;;;;;;5024162;28;20356;-72
2024/01/11 09:44:37;;;;;;;36.03;16.10;;;-0.20;99.90;;;;;;5027119;28;20029;-68
2024/01/11 09:47:06;;;;;;;37.25;15.57;;;-0.10;99.90;;;;;;5028745;28;20137;-69
2024/01/11 09:49:33;;;;;;;32.40;15.95;;;-0.10;99.90;;;;;;5026504;28;20041;-68
2024/01/11 09:52:01;;;;;;;42.42;17.38;;;0.00;99.90;;;;;;5025147;28;20177;-68
2024/01/11 09:54:27;;;;;;;32.97;14.77;;;0.00;99.90;;;;;;5023568;28;20053;-68
2024/01/11 09:56:54;;;;;;;34.37;16.63;;;0.00;99.90;;;;;;5024008;28;20083;-77
2024/01/11 09:59:23;;;;;;;36.33;14.93;;;0.10;99.90;;;;;;5025378;28;20054;-71
2024/01/11 10:01:50;;;;;;;37.30;15.18;;;0.10;99.90;;;;;;5025901;28;20044;-70
2024/01/11 10:04:16;;;;;;;33.85;14.15;;;0.10;99.90;;;;;;5026144;28;20062;-71
2024/01/11 10:06:42;;;;;;;41.95;15.68;;;0.20;99.90;;;;;;5023135;28;20494;-69
2024/01/11 10:09:09;;;;;;;34.45;15.82;;;0.20;99.90;;;;;;5028892;28;20045;-69
2024/01/11 10:11:35;;;;;;;33.15;14.57;;;0.30;99.90;;;;;;5023914;28;20056;-71
2024/01/11 10:14:01;;;;;;;38.17;15.20;;;0.30;99.90;;;;;;5022389;28;20033;-69
2024/01/11 10:16:28;;;;;;;35.47;15.60;;;0.40;99.90;;;;;;5020802;28;20436;-69
2024/01/11 10:18:55;;;;;;;31.98;14.55;;;0.40;99.90;;;;;;5022201;28;20711;-68
2024/01/11 10:21:21;;;;;;;30.70;14.93;;;0.50;99.90;;;;;;5023346;28;20520;-69
2024/01/11 10:23:48;;;;;;;34.17;14.30;;;0.50;99.90;;;;;;5026359;28;20041;-69
2024/01/11 10:26:18;;;;;;;34.65;13.82;;;0.50;99.90;;;;;;5027237;28;20041;-69
2024/01/11 10:28:45;;;;;;;32.40;13.45;;;0.50;99.90;;;;;;5024937;28;20064;-69
2024/01/11 10:31:11;;;;;;;34.40;15.80;;;0.60;99.90;;;;;;5017235;28;20038;-69
2024/01/11 10:33:37;;;;;;;29.07;14.37;;;0.60;99.90;;;;;;5016588;28;20037;-69
2024/01/11 10:36:03;;;;;;;30.38;13.30;;;0.60;99.90;;;;;;5022990;28;20128;-68
2024/01/11 10:38:30;;;;;;;36.40;14.52;;;0.70;99.90;;;;;;5023365;28;20045;-68
2024/01/11 10:41:00;;;;;;;33.53;14.52;;;0.70;99.90;;;;;;5018389;28;20060;-68
2024/01/11 10:43:29;;;;;;;33.38;15.63;;;0.70;99.90;;;;;;5023224;28;20052;-68
2024/01/11 10:46:04;;;;;;;32.40;15.23;;;0.80;99.90;;;;;;5025516;28;20123;-68
2024/01/11 10:48:31;;;;;;;33.45;13.93;;;0.80;99.90;;;;;;5018891;28;20312;-68
2024/01/11 10:51:01;;;;;;;29.55;13.75;;;0.80;99.90;;;;;;5017180;28;20050;-68
2024/01/11 10:53:43;;;;;;;31.85;13.65;;;0.80;99.90;;;;;;5022386;28;20037;-69
2024/01/11 10:56:11;;;;;;;31.83;13.38;;;0.90;99.90;;;;;;5024672;28;20097;-68
2024/01/11 10:58:43;;;;;;;29.30;11.77;;;0.90;99.90;;;;;;5019046;28;20041;-69
2024/01/11 11:01:11;;;;;;;33.53;14.38;;;0.90;99.90;;;;;;5020603;28;20111;-68
2024/01/11 11:03:37;;;;;;;29.95;12.93;;;0.90;99.90;;;;;;5025307;28;20041;-68
2024/01/11 11:06:08;;;;;;;28.80;12.70;;;1.00;99.90;;;;;;5017898;28;20115;-68
2024/01/11 11:08:34;;;;;;;30.08;12.60;;;1.00;99.90;;;;;;5016067;28;20045;-68
2024/01/11 11:11:06;;;;;;;27.05;12.90;;;1.00;99.90;;;;;;5013697;28;20141;-68
2024/01/11 11:13:34;;;;;;;30.73;13.48;;;1.10;99.90;;;;;;5025702;28;20050;-68
2024/01/11 11:16:02;;;;;;;29.02;12.98;;;1.10;99.90;;;;;;5022162;28;20042;-68
2024/01/11 11:18:27;;;;;;;26.20;12.93;;;1.10;99.90;;;;;;5027551;28;20490;-68
2024/01/11 11:20:54;;;;;;;33.13;12.53;;;1.20;99.90;;;;;;5025053;28;20042;-69
2024/01/11 11:23:19;;;;;;;34.38;13.48;;;1.20;99.90;;;;;;5020664;28;20033;-68
2024/01/11 11:25:47;;;;;;;23.73;11.30;;;1.20;99.90;;;;;;5016719;28;20060;-68
2024/01/11 11:28:14;;;;;;;25.13;12.10;;;1.20;99.90;;;;;;5025664;28;20512;-68
2024/01/11 11:30:45;;;;;;;25.08;11.85;;;1.20;99.90;;;;;;5022232;28;20041;-68
2024/01/11 11:33:15;;;;;;;24.27;12.32;;;1.20;99.90;;;;;;5002870;28;20045;-69
2024/01/11 11:35:42;;;;;;;27.40;13.43;;;1.30;99.90;;;;;;5020136;28;20037;-69
2024/01/11 11:38:16;;;;;;;22.67;11.02;;;1.40;99.90;;;;;;5021018;28;20037;-70
2024/01/11 11:40:44;;;;;;;25.95;12.23;;;1.40;99.90;;;;;;5021186;28;20501;-69
2024/01/11 11:43:10;;;;;;;24.65;12.07;;;1.40;99.90;;;;;;5007108;28;20041;-69
2024/01/11 11:45:37;;;;;;;24.53;12.37;;;1.50;99.90;;;;;;5024891;28;20044;-69
2024/01/11 11:48:29;;;;;;;24.63;11.45;;;1.50;99.90;;;;;;5017397;28;20037;-69
2024/01/11 11:51:12;;;;;;;22.95;10.45;;;1.50;99.90;;;;;;5016713;28;20127;-69
2024/01/11 11:53:42;;;;;;;27.92;11.23;;;1.50;99.90;;;;;;5021950;28;20098;-69
2024/01/11 11:56:10;;;;;;;20.50;10.23;;;1.60;99.90;;;;;;5021034;28;20192;-69
2024/01/11 11:58:36;;;;;;;24.88;11.85;;;1.60;99.90;;;;;;5008673;28;20045;-69
2024/01/11 12:01:04;;;;;;;23.17;10.95;;;1.60;99.90;;;;;;5005982;28;20048;-69
2024/01/11 12:03:37;;;;;;;24.50;10.98;;;1.60;99.90;;;;;;5022899;28;20041;-69
2024/01/11 12:06:04;;;;;;;22.08;10.15;;;1.70;99.90;;;;;;5018749;28;20376;-69
2024/01/11 12:08:31;;;;;;;24.67;11.18;;;1.70;99.90;;;;;;5021990;28;20042;-69
2024/01/11 12:10:57;;;;;;;22.25;10.73;;;1.70;99.90;;;;;;5023130;28;20430;-69
2024/01/11 12:13:24;;;;;;;26.30;10.50;;;1.80;99.90;;;;;;5030384;28;20068;-69
2024/01/11 12:15:49;;;;;;;22.30;10.48;;;1.80;99.90;;;;;;5021751;28;20049;-69
2024/01/11 12:18:15;;;;;;;23.10;11.00;;;1.80;99.90;;;;;;5023424;28;20421;-69
2024/01/11 12:20:41;;;;;;;22.07;10.03;;;1.90;99.90;;;;;;5016893;28;20041;-69
2024/01/11 12:23:07;;;;;;;22.58;11.05;;;1.80;99.90;;;;;;5023724;28;20040;-69
2024/01/11 12:25:33;;;;;;;23.58;9.48;;;1.80;99.90;;;;;;5022337;28;20142;-69
2024/01/11 12:27:58;;;;;;;28.23;11.03;;;1.90;99.90;;;;;;5023251;28;20042;-69